createdAt,value
2023-02-22T00:01:30.308Z,8.91
2023-02-22T00:03:56.574Z,8.88
2023-02-22T00:06:22.825Z,8.81
2023-02-22T00:08:49.081Z,8.75
2023-02-22T00:11:15.627Z,8.82
2023-02-22T00:13:42.062Z,8.89
2023-02-22T00:16:08.374Z,8.92
2023-02-22T00:18:34.661Z,8.90
2023-02-22T00:21:00.961Z,8.92
2023-02-22T00:23:27.285Z,8.98
2023-02-22T00:25:53.549Z,8.98
2023-02-22T00:28:19.894Z,8.99
2023-02-22T00:30:46.143Z,8.97
2023-02-22T00:33:12.400Z,8.92
2023-02-22T00:35:38.666Z,8.91
2023-02-22T00:38:04.942Z,8.94
2023-02-22T00:40:31.218Z,8.76
2023-02-22T00:42:57.475Z,8.67
2023-02-22T00:45:23.744Z,8.57
2023-02-22T00:47:50.007Z,8.56
2023-02-22T00:50:16.246Z,8.50
2023-02-22T00:52:42.491Z,8.40
2023-02-22T00:55:08.757Z,8.35
2023-02-22T00:57:35.008Z,8.32
2023-02-22T01:00:01.269Z,8.26
2023-02-22T01:02:27.585Z,8.24
2023-02-22T01:04:54.086Z,8.24
2023-02-22T01:07:20.392Z,8.20
2023-02-22T01:09:46.693Z,8.27
2023-02-22T01:12:12.969Z,8.34
2023-02-22T01:14:39.241Z,8.39
2023-02-22T01:17:05.498Z,8.41
2023-02-22T01:19:31.755Z,8.25
2023-02-22T01:21:58.029Z,8.20
2023-02-22T01:24:24.281Z,8.05
2023-02-22T01:26:50.619Z,7.96
2023-02-22T01:29:17.082Z,7.96
2023-02-22T01:31:43.414Z,7.96
2023-02-22T01:34:09.785Z,7.92
2023-02-22T01:36:36.030Z,7.88
2023-02-22T01:39:02.293Z,7.88
2023-02-22T01:41:28.582Z,7.80
2023-02-22T01:43:54.852Z,7.79
2023-02-22T01:46:21.288Z,7.81
2023-02-22T01:48:47.615Z,7.75
2023-02-22T01:51:13.924Z,7.71
2023-02-22T01:53:40.277Z,7.61
2023-02-22T01:56:06.537Z,7.55
2023-02-22T01:58:32.793Z,7.55
2023-02-22T02:00:59.046Z,7.58
2023-02-22T02:03:25.300Z,7.56
2023-02-22T02:05:51.571Z,7.51
2023-02-22T02:08:17.812Z,7.52
2023-02-22T02:10:44.058Z,7.46
2023-02-22T02:13:10.301Z,7.43
2023-02-22T02:15:36.563Z,7.52
2023-02-22T02:18:02.818Z,7.58
2023-02-22T02:20:29.077Z,7.59
2023-02-22T02:22:55.330Z,7.59
2023-02-22T02:25:21.590Z,7.59
2023-02-22T02:27:47.837Z,7.52
2023-02-22T02:30:14.130Z,7.48
2023-02-22T02:32:40.573Z,7.43
2023-02-22T02:35:06.928Z,7.49
2023-02-22T02:37:33.245Z,7.52
2023-02-22T02:39:59.571Z,7.57
2023-02-22T02:42:25.841Z,7.58
2023-02-22T02:44:52.119Z,7.52
2023-02-22T02:47:18.415Z,7.30
2023-02-22T02:49:44.713Z,7.17
2023-02-22T02:52:10.981Z,7.14
2023-02-22T02:54:37.257Z,7.10
2023-02-22T02:57:03.522Z,7.09
2023-02-22T02:59:29.764Z,7.13
2023-02-22T03:01:56.103Z,7.11
2023-02-22T03:04:22.410Z,7.10
2023-02-22T03:06:48.666Z,7.03
2023-02-22T03:09:14.934Z,6.98
2023-02-22T03:11:41.196Z,6.95
2023-02-22T03:14:07.459Z,6.95
2023-02-22T03:16:33.725Z,6.97
2023-02-22T03:19:00.014Z,7.00
2023-02-22T03:21:26.301Z,7.09
2023-02-22T03:23:52.556Z,7.18
2023-02-22T03:26:18.822Z,7.23
2023-02-22T03:28:45.075Z,7.17
2023-02-22T03:31:11.370Z,7.11
2023-02-22T03:33:37.633Z,7.07
2023-02-22T03:36:03.899Z,7.06
2023-02-22T03:38:30.146Z,6.99
2023-02-22T03:40:56.389Z,6.99
2023-02-22T03:43:22.637Z,7.06
2023-02-22T03:45:48.903Z,7.06
2023-02-22T03:48:15.158Z,7.12
2023-02-22T03:50:41.422Z,7.15
2023-02-22T03:53:07.690Z,7.20
2023-02-22T03:55:33.952Z,7.20
2023-02-22T03:58:00.200Z,7.22
2023-02-22T04:00:26.465Z,7.21
2023-02-22T04:02:52.782Z,7.21
2023-02-22T04:05:19.077Z,7.22
2023-02-22T04:07:45.350Z,7.25
2023-02-22T04:10:11.618Z,7.17
2023-02-22T04:12:37.915Z,7.17
2023-02-22T04:15:04.194Z,7.22
2023-02-22T04:17:30.446Z,7.31
2023-02-22T04:19:56.846Z,7.37
2023-02-22T04:22:23.134Z,7.42
2023-02-22T04:24:49.408Z,7.50
2023-02-22T04:27:15.675Z,7.50
2023-02-22T04:29:41.932Z,7.39
2023-02-22T04:32:08.212Z,7.23
2023-02-22T04:34:34.483Z,7.13
2023-02-22T04:37:00.745Z,7.13
2023-02-22T04:39:27.082Z,7.12
2023-02-22T04:41:53.369Z,7.17
2023-02-22T04:44:19.622Z,7.12
2023-02-22T04:46:45.897Z,7.19
2023-02-22T04:49:12.191Z,7.26
2023-02-22T04:51:38.439Z,7.30
2023-02-22T04:54:04.683Z,7.33
2023-02-22T04:56:30.960Z,7.31
2023-02-22T04:58:57.227Z,7.27
2023-02-22T05:01:23.505Z,7.13
2023-02-22T05:03:49.775Z,7.10
2023-02-22T05:06:16.039Z,7.18
2023-02-22T05:08:42.308Z,7.28
2023-02-22T05:11:08.565Z,7.52
2023-02-22T05:13:34.814Z,7.68
2023-02-22T05:16:01.124Z,7.79
2023-02-22T05:18:27.411Z,7.91
2023-02-22T05:20:53.650Z,7.94
2023-02-22T05:23:19.908Z,8.08
2023-02-22T05:25:46.183Z,8.13
2023-02-22T05:28:12.429Z,8.13
2023-02-22T05:30:38.786Z,8.15
2023-02-22T05:33:05.053Z,8.15
2023-02-22T05:35:31.305Z,8.20
2023-02-22T05:37:57.568Z,8.13
2023-02-22T05:40:23.838Z,8.14
2023-02-22T05:42:50.279Z,8.17
2023-02-22T05:45:16.599Z,8.22
2023-02-22T05:47:42.872Z,8.26
2023-02-22T05:50:09.116Z,8.28
2023-02-22T05:52:35.371Z,8.27
2023-02-22T05:55:01.631Z,8.29
2023-02-22T05:57:27.912Z,8.33
2023-02-22T05:59:54.182Z,8.45
2023-02-22T06:02:20.444Z,8.38
2023-02-22T06:04:46.710Z,8.36
2023-02-22T06:07:12.982Z,8.40
2023-02-22T06:09:39.277Z,8.33
2023-02-22T06:12:05.544Z,8.27
2023-02-22T06:14:31.802Z,8.21
2023-02-22T06:16:58.065Z,8.19
2023-02-22T06:19:24.337Z,8.18
2023-02-22T06:21:50.623Z,8.19
2023-02-22T06:24:16.896Z,8.21
2023-02-22T06:26:43.159Z,8.23
2023-02-22T06:29:09.438Z,8.21
2023-02-22T06:31:35.731Z,8.22
2023-02-22T06:34:01.995Z,8.19
2023-02-22T06:36:28.265Z,8.14
2023-02-22T06:38:54.538Z,8.16
2023-02-22T06:41:20.821Z,8.15
2023-02-22T06:43:47.081Z,8.13
2023-02-22T06:46:13.352Z,8.18
2023-02-22T06:48:39.626Z,8.16
2023-02-22T06:51:05.885Z,8.22
2023-02-22T06:53:32.143Z,8.30
2023-02-22T06:55:58.406Z,8.34
2023-02-22T06:58:24.678Z,8.40
2023-02-22T07:00:50.945Z,8.45
2023-02-22T07:03:17.273Z,8.43
2023-02-22T07:05:43.594Z,8.43
2023-02-22T07:08:09.858Z,8.45
2023-02-22T07:10:36.130Z,8.43
2023-02-22T07:13:02.405Z,8.81
2023-02-22T07:15:28.711Z,9.05
2023-02-22T07:17:54.983Z,9.16
2023-02-22T07:20:21.239Z,9.20
2023-02-22T07:22:47.508Z,9.30
2023-02-22T07:25:13.762Z,9.30
2023-02-22T07:27:40.015Z,9.41
2023-02-22T07:30:06.320Z,9.29
2023-02-22T07:32:32.695Z,9.33
2023-02-22T07:34:59.017Z,9.21
2023-02-22T07:37:25.286Z,9.05
2023-02-22T07:39:51.551Z,9.13
2023-02-22T07:42:17.804Z,9.07
2023-02-22T07:44:44.065Z,8.98
2023-02-22T07:47:10.329Z,9.04
2023-02-22T07:49:36.609Z,9.12
2023-02-22T07:52:02.870Z,9.24
2023-02-22T07:54:29.129Z,9.15
2023-02-22T07:56:55.379Z,9.21
2023-02-22T07:59:21.646Z,9.27
2023-02-22T08:01:47.905Z,9.30
2023-02-22T08:04:14.177Z,9.31
2023-02-22T08:06:40.451Z,9.32
2023-02-22T08:09:06.722Z,9.42
2023-02-22T08:11:32.988Z,9.46
2023-02-22T08:13:59.255Z,9.43
2023-02-22T08:16:25.517Z,9.48
2023-02-22T08:18:51.776Z,9.50
2023-02-22T08:21:18.384Z,9.46
2023-02-22T08:23:44.810Z,9.49
2023-02-22T08:26:11.091Z,9.61
2023-02-22T08:28:37.351Z,9.57
2023-02-22T08:31:03.600Z,9.69
2023-02-22T08:33:29.870Z,9.90
2023-02-22T08:35:56.149Z,9.82
2023-02-22T08:38:22.404Z,9.85
2023-02-22T08:40:48.693Z,9.78
2023-02-22T08:43:14.984Z,9.95
2023-02-22T08:45:41.330Z,9.98
2023-02-22T08:48:07.615Z,10.02
2023-02-22T08:50:33.889Z,10.02
2023-02-22T08:53:00.150Z,10.13
2023-02-22T08:55:26.414Z,10.14
2023-02-22T08:57:52.677Z,10.22
2023-02-22T09:00:18.938Z,10.25
2023-02-22T09:02:45.201Z,10.50
2023-02-22T09:05:11.474Z,10.46
2023-02-22T09:07:37.743Z,10.66
2023-02-22T09:10:04.009Z,10.68
2023-02-22T09:12:30.284Z,10.62
2023-02-22T09:14:56.547Z,10.56
2023-02-22T09:17:22.821Z,10.51
2023-02-22T09:19:49.086Z,10.58
2023-02-22T09:22:15.341Z,10.70
2023-02-22T09:24:41.604Z,10.69
2023-02-22T09:27:07.891Z,10.69
2023-02-22T09:29:34.152Z,10.73
2023-02-22T09:32:00.529Z,10.72
2023-02-22T09:34:26.859Z,10.89
2023-02-22T09:36:53.125Z,10.76
2023-02-22T09:39:19.419Z,10.79
2023-02-22T09:41:45.694Z,10.76
2023-02-22T09:44:11.987Z,10.70
2023-02-22T09:46:38.252Z,10.71
2023-02-22T09:49:04.524Z,10.85
2023-02-22T09:51:30.789Z,10.81
2023-02-22T09:53:57.064Z,10.85
2023-02-22T09:56:23.330Z,10.93
2023-02-22T09:58:49.616Z,10.95
2023-02-22T10:01:15.874Z,10.98
2023-02-22T10:03:42.194Z,10.86
2023-02-22T10:06:08.472Z,10.82
2023-02-22T10:08:34.751Z,10.89
2023-02-22T10:11:01.015Z,10.87
2023-02-22T10:13:27.297Z,10.94
2023-02-22T10:15:53.565Z,11.05
2023-02-22T10:18:19.820Z,11.20
2023-02-22T10:20:46.166Z,11.22
2023-02-22T10:23:12.423Z,11.35
2023-02-22T10:25:38.678Z,11.41
2023-02-22T10:28:04.930Z,11.46
2023-02-22T10:30:33.755Z,11.63
2023-02-22T10:33:00.482Z,11.61
2023-02-22T10:35:26.757Z,11.73
2023-02-22T10:37:53.047Z,11.78
2023-02-22T10:40:19.319Z,11.75
2023-02-22T10:42:45.590Z,11.80
2023-02-22T10:45:11.850Z,11.85
2023-02-22T10:47:38.104Z,11.92
2023-02-22T10:50:04.387Z,12.04
2023-02-22T10:52:30.686Z,12.19
2023-02-22T10:55:03.474Z,12.20
2023-02-22T10:57:38.948Z,12.22
2023-02-22T11:00:05.232Z,12.27
2023-02-22T11:02:31.482Z,12.32
2023-02-22T11:04:57.765Z,12.32
2023-02-22T11:07:24.027Z,12.41
2023-02-22T11:09:50.323Z,12.51
2023-02-22T11:12:16.622Z,12.55
2023-02-22T11:14:42.908Z,12.60
2023-02-22T11:17:09.173Z,12.63
2023-02-22T11:19:35.526Z,12.69
2023-02-22T11:22:01.771Z,12.75
2023-02-22T11:24:34.596Z,12.79
2023-02-22T11:27:06.577Z,12.87
2023-02-22T11:29:32.857Z,13.02
2023-02-22T11:31:59.158Z,13.00
2023-02-22T11:34:25.473Z,13.02
2023-02-22T11:36:51.836Z,13.04
2023-02-22T11:39:18.134Z,13.07
2023-02-22T11:41:44.401Z,13.01
2023-02-22T11:44:10.650Z,13.08
2023-02-22T11:46:36.951Z,13.16
2023-02-22T11:49:03.226Z,13.12
2023-02-22T11:51:29.495Z,13.26
2023-02-22T11:53:55.777Z,13.15
2023-02-22T11:56:35.643Z,12.98
2023-02-22T11:59:03.372Z,12.97
2023-02-22T12:01:29.650Z,13.03
2023-02-22T12:03:55.998Z,13.07
2023-02-22T12:06:22.316Z,12.98
2023-02-22T12:08:48.584Z,12.87
2023-02-22T12:11:14.862Z,12.93
2023-02-22T12:13:41.129Z,12.89
2023-02-22T12:16:07.417Z,12.96
2023-02-22T12:18:33.699Z,13.02
2023-02-22T12:20:59.952Z,13.06
2023-02-22T12:23:26.200Z,12.96
2023-02-22T12:25:52.477Z,12.95
2023-02-22T12:28:24.548Z,12.96
2023-02-22T12:30:51.481Z,13.06
2023-02-22T12:33:17.757Z,13.02
2023-02-22T12:35:44.110Z,13.09
2023-02-22T12:38:10.368Z,13.01
2023-02-22T12:40:36.659Z,12.84
2023-02-22T12:43:02.964Z,12.89
2023-02-22T12:45:29.253Z,12.97
2023-02-22T12:47:55.532Z,12.86
2023-02-22T12:50:21.809Z,12.84
2023-02-22T12:52:48.086Z,12.88
2023-02-22T12:55:14.342Z,12.86
2023-02-22T12:57:40.632Z,12.76
2023-02-22T13:00:06.891Z,12.67
2023-02-22T13:02:33.143Z,12.61
2023-02-22T13:04:59.417Z,12.39
2023-02-22T13:07:25.685Z,12.30
2023-02-22T13:09:51.938Z,12.32
2023-02-22T13:12:18.210Z,12.14
2023-02-22T13:14:44.475Z,12.23
2023-02-22T13:17:10.747Z,12.14
2023-02-22T13:19:37.003Z,12.13
2023-02-22T13:22:03.260Z,12.14
2023-02-22T13:24:29.525Z,12.13
2023-02-22T13:26:55.834Z,11.99
2023-02-22T13:29:22.126Z,12.15
2023-02-22T13:31:48.443Z,12.25
2023-02-22T13:34:14.757Z,12.21
2023-02-22T13:36:41.015Z,12.19
2023-02-22T13:39:07.289Z,12.20
2023-02-22T13:41:33.575Z,12.23
2023-02-22T13:43:59.845Z,12.19
2023-02-22T13:46:26.124Z,12.23
2023-02-22T13:48:52.432Z,12.20
2023-02-22T13:51:18.710Z,12.23
2023-02-22T13:53:45.003Z,12.23
2023-02-22T13:56:11.275Z,12.26
2023-02-22T13:58:37.532Z,12.33
2023-02-22T14:01:03.849Z,12.32
2023-02-22T14:03:30.160Z,12.33
2023-02-22T14:05:56.438Z,12.32
2023-02-22T14:08:22.701Z,12.34
2023-02-22T14:10:48.986Z,12.34
2023-02-22T14:13:15.238Z,12.23
2023-02-22T14:15:41.634Z,12.22
2023-02-22T14:18:07.899Z,12.19
2023-02-22T14:20:35.311Z,12.18
2023-02-22T14:23:01.759Z,12.18
2023-02-22T14:25:28.634Z,12.16
2023-02-22T14:27:56.058Z,12.12
2023-02-22T14:30:22.352Z,12.07
2023-02-22T14:32:48.814Z,12.05
2023-02-22T14:35:26.550Z,12.02
2023-02-22T14:37:54.815Z,11.95
2023-02-22T14:40:21.082Z,11.99
2023-02-22T14:42:47.414Z,12.07
2023-02-22T14:45:13.763Z,12.09
2023-02-22T14:47:40.042Z,12.07
2023-02-22T14:50:06.323Z,12.10
2023-02-22T14:52:32.594Z,12.05
2023-02-22T14:54:58.868Z,12.13
2023-02-22T14:57:25.134Z,12.08
2023-02-22T14:59:51.405Z,12.10
2023-02-22T15:02:17.687Z,12.12
2023-02-22T15:04:44.209Z,12.16
2023-02-22T15:07:10.577Z,12.19
2023-02-22T15:09:36.827Z,12.14
2023-02-22T15:12:03.088Z,12.06
2023-02-22T15:14:29.365Z,12.07
2023-02-22T15:16:55.643Z,12.09
2023-02-22T15:19:21.909Z,12.13
2023-02-22T15:21:48.192Z,12.11
2023-02-22T15:24:14.476Z,12.11
2023-02-22T15:26:49.034Z,12.09
2023-02-22T15:29:21.842Z,12.22
2023-02-22T15:31:48.625Z,12.13
2023-02-22T15:34:14.998Z,12.06
2023-02-22T15:36:41.254Z,12.01
2023-02-22T15:39:07.511Z,12.05
2023-02-22T15:41:33.773Z,12.04
2023-02-22T15:44:03.410Z,12.00
2023-02-22T15:46:31.821Z,12.00
2023-02-22T15:48:58.100Z,12.00
2023-02-22T15:51:24.378Z,12.07
2023-02-22T15:53:50.656Z,12.11
2023-02-22T15:56:16.918Z,12.05
2023-02-22T15:58:43.200Z,12.01
2023-02-22T16:01:09.468Z,12.00
2023-02-22T16:03:35.722Z,12.04
2023-02-22T16:06:01.997Z,12.04
2023-02-22T16:08:28.247Z,12.06
2023-02-22T16:10:54.518Z,12.16
2023-02-22T16:13:31.076Z,12.28
2023-02-22T16:15:58.529Z,12.43
2023-02-22T16:18:24.796Z,12.33
2023-02-22T16:20:51.070Z,12.25
2023-02-22T16:23:17.345Z,12.17
2023-02-22T16:25:43.620Z,12.13
2023-02-22T16:28:09.882Z,12.09
2023-02-22T16:30:36.263Z,12.09
2023-02-22T16:33:02.605Z,12.03
2023-02-22T16:35:29.351Z,12.04
2023-02-22T16:37:55.802Z,11.94
2023-02-22T16:40:22.065Z,11.99
2023-02-22T16:42:48.387Z,11.92
2023-02-22T16:45:14.695Z,11.90
2023-02-22T16:47:40.978Z,11.89
2023-02-22T16:50:07.234Z,11.84
2023-02-22T16:52:33.527Z,11.98
2023-02-22T16:54:59.836Z,11.91
2023-02-22T16:57:26.098Z,11.99
2023-02-22T16:59:52.366Z,12.14
2023-02-22T17:02:18.614Z,12.04
2023-02-22T17:04:44.855Z,11.78
2023-02-22T17:07:11.126Z,11.58
2023-02-22T17:09:37.466Z,11.59
2023-02-22T17:12:03.753Z,11.54
2023-02-22T17:14:30.022Z,11.45
2023-02-22T17:16:56.286Z,11.51
2023-02-22T17:19:22.551Z,11.58
2023-02-22T17:21:48.833Z,11.57
2023-02-22T17:24:15.116Z,11.54
2023-02-22T17:26:41.378Z,11.62
2023-02-22T17:29:07.649Z,11.77
2023-02-22T17:31:34.007Z,11.70
2023-02-22T17:34:00.281Z,11.72
2023-02-22T17:36:26.572Z,11.67
2023-02-22T17:38:52.836Z,11.63
2023-02-22T17:41:19.090Z,11.51
2023-02-22T17:43:45.393Z,11.45
2023-02-22T17:46:11.685Z,11.43
2023-02-22T17:48:37.982Z,11.41
2023-02-22T17:51:04.269Z,11.34
2023-02-22T17:53:30.554Z,11.35
2023-02-22T17:55:56.826Z,11.31
2023-02-22T17:58:23.148Z,11.23
2023-02-22T18:00:49.467Z,11.22
2023-02-22T18:03:15.745Z,11.18
2023-02-22T18:05:42.009Z,11.11
2023-02-22T18:08:08.311Z,11.09
2023-02-22T18:10:34.614Z,11.06
2023-02-22T18:13:00.868Z,11.05
2023-02-22T18:15:27.233Z,11.02
2023-02-22T18:17:53.490Z,11.08
2023-02-22T18:20:19.765Z,10.98
2023-02-22T18:22:46.032Z,11.02
2023-02-22T18:25:12.279Z,11.11
2023-02-22T18:27:38.533Z,11.08
2023-02-22T18:30:04.801Z,11.07
2023-02-22T18:32:31.179Z,11.04
2023-02-22T18:34:57.470Z,11.02
2023-02-22T18:37:23.727Z,10.99
2023-02-22T18:39:50.018Z,11.01
2023-02-22T18:42:16.311Z,10.99
2023-02-22T18:44:42.595Z,10.99
2023-02-22T18:47:08.861Z,10.99
2023-02-22T18:49:35.119Z,10.98
2023-02-22T18:52:01.381Z,11.01
2023-02-22T18:54:27.676Z,10.97
2023-02-22T18:56:53.944Z,10.92
2023-02-22T18:59:20.210Z,10.87
2023-02-22T19:01:46.497Z,10.85
2023-02-22T19:04:12.844Z,10.89
2023-02-22T19:06:39.138Z,10.94
2023-02-22T19:09:05.398Z,10.93
2023-02-22T19:11:31.675Z,10.90
2023-02-22T19:13:57.958Z,10.93
2023-02-22T19:16:24.265Z,10.88
2023-02-22T19:18:50.569Z,10.85
2023-02-22T19:21:17.057Z,10.83
2023-02-22T19:23:43.466Z,10.80
2023-02-22T19:26:09.714Z,10.81
2023-02-22T19:28:35.953Z,10.77
2023-02-22T19:31:02.343Z,10.82
2023-02-22T19:33:28.895Z,10.85
2023-02-22T19:35:55.219Z,10.84
2023-02-22T19:38:21.493Z,10.87
2023-02-22T19:40:47.772Z,10.88
2023-02-22T19:43:14.049Z,10.89
2023-02-22T19:45:40.358Z,10.92
2023-02-22T19:48:06.638Z,10.86
2023-02-22T19:50:32.895Z,10.86
2023-02-22T19:52:59.147Z,10.91
2023-02-22T19:55:25.418Z,10.83
2023-02-22T19:57:51.673Z,10.79
2023-02-22T20:00:17.944Z,10.81
2023-02-22T20:02:44.243Z,10.78
2023-02-22T20:05:10.506Z,10.78
2023-02-22T20:07:36.782Z,10.83
2023-02-22T20:10:03.051Z,10.79
2023-02-22T20:12:29.302Z,10.86
2023-02-22T20:14:55.550Z,10.98
2023-02-22T20:17:21.814Z,10.93
2023-02-22T20:19:48.062Z,10.85
2023-02-22T20:22:14.323Z,10.84
2023-02-22T20:24:40.590Z,10.77
2023-02-22T20:27:06.840Z,10.70
2023-02-22T20:29:33.101Z,10.72
2023-02-22T20:31:59.482Z,10.63
2023-02-22T20:34:26.143Z,10.64
2023-02-22T20:36:52.437Z,10.66
2023-02-22T20:39:18.711Z,10.58
2023-02-22T20:41:44.989Z,10.57
2023-02-22T20:44:11.243Z,10.52
2023-02-22T20:46:37.501Z,10.44
2023-02-22T20:49:03.765Z,10.41
2023-02-22T20:51:30.031Z,10.39
2023-02-22T20:53:56.294Z,10.37
2023-02-22T20:56:22.556Z,10.35
2023-02-22T20:58:48.829Z,10.32
2023-02-22T21:01:15.150Z,10.28
2023-02-22T21:03:41.563Z,10.28
2023-02-22T21:06:07.846Z,10.25
2023-02-22T21:08:34.097Z,10.20
2023-02-22T21:11:00.350Z,10.17
2023-02-22T21:13:26.618Z,10.16
2023-02-22T21:15:52.887Z,10.18
2023-02-22T21:18:19.135Z,10.21
2023-02-22T21:20:45.401Z,10.24
2023-02-22T21:23:11.678Z,10.34
2023-02-22T21:25:37.958Z,10.45
2023-02-22T21:28:04.223Z,10.41
2023-02-22T21:30:30.553Z,10.37
2023-02-22T21:32:56.867Z,10.32
2023-02-22T21:35:23.124Z,10.33
2023-02-22T21:37:49.390Z,10.24
2023-02-22T21:40:15.645Z,10.17
2023-02-22T21:42:41.903Z,10.13
2023-02-22T21:45:08.166Z,10.14
2023-02-22T21:47:34.449Z,10.09
2023-02-22T21:50:00.706Z,10.13
2023-02-22T21:52:26.964Z,10.15
2023-02-22T21:54:53.234Z,10.24
2023-02-22T21:57:19.507Z,10.27
2023-02-22T21:59:45.829Z,10.27
2023-02-22T22:02:12.100Z,10.22
2023-02-22T22:04:38.371Z,10.23
2023-02-22T22:07:04.642Z,10.24
2023-02-22T22:09:30.901Z,10.21
2023-02-22T22:11:57.150Z,10.20
2023-02-22T22:14:23.397Z,10.19
2023-02-22T22:16:49.680Z,10.20
2023-02-22T22:19:15.945Z,10.21
2023-02-22T22:21:42.216Z,10.17
2023-02-22T22:24:08.464Z,10.21
2023-02-22T22:26:34.807Z,10.25
2023-02-22T22:29:01.131Z,10.27
2023-02-22T22:31:27.556Z,10.29
2023-02-22T22:33:53.950Z,10.29
2023-02-22T22:36:20.225Z,10.31
2023-02-22T22:38:46.492Z,10.33
2023-02-22T22:41:12.755Z,10.32
2023-02-22T22:43:39.021Z,10.33
2023-02-22T22:46:05.347Z,10.35
2023-02-22T22:48:31.698Z,10.35
2023-02-22T22:50:57.977Z,10.40
2023-02-22T22:53:24.246Z,10.41
2023-02-22T22:55:50.502Z,10.39
2023-02-22T22:58:16.753Z,10.45
2023-02-22T23:00:43.020Z,10.45
2023-02-22T23:03:09.379Z,10.44
2023-02-22T23:05:35.722Z,10.46
2023-02-22T23:08:01.992Z,10.45
2023-02-22T23:10:28.264Z,10.42
2023-02-22T23:12:54.521Z,10.41
2023-02-22T23:15:20.784Z,10.42
2023-02-22T23:17:47.051Z,10.39
2023-02-22T23:20:13.298Z,10.39
2023-02-22T23:22:39.550Z,10.45
2023-02-22T23:25:05.822Z,10.52
2023-02-22T23:27:32.103Z,10.55
2023-02-22T23:29:58.363Z,10.47
2023-02-22T23:32:24.635Z,10.44
2023-02-22T23:34:50.935Z,10.53
2023-02-22T23:37:17.194Z,10.62
2023-02-22T23:39:43.484Z,10.57
2023-02-22T23:42:09.759Z,10.51
2023-02-22T23:44:36.047Z,10.39
2023-02-22T23:47:02.413Z,10.30
2023-02-22T23:49:28.735Z,10.26
2023-02-22T23:51:55.000Z,10.22
2023-02-22T23:54:21.280Z,10.17
2023-02-22T23:56:47.570Z,10.14
2023-02-22T23:59:13.825Z,10.15
